sensor_id;sensor_type;location;lat;lon;timestamp;temperature;humidity
56542;DHT22;42438;53.174;6.730;2022-08-19T00:00:59;15.40;99.90
56542;DHT22;42438;53.174;6.730;2022-08-19T00:03:29;15.30;99.90
56542;DHT22;42438;53.174;6.730;2022-08-19T00:06:00;15.20;99.90
56542;DHT22;42438;53.174;6.730;2022-08-19T00:08:31;15.10;99.90
56542;DHT22;42438;53.174;6.730;2022-08-19T00:11:01;15.10;99.90
56542;DHT22;42438;53.174;6.730;2022-08-19T00:13:33;15.10;99.90
56542;DHT22;42438;53.174;6.730;2022-08-19T00:16:05;15.10;99.90
56542;DHT22;42438;53.174;6.730;2022-08-19T00:18:36;15.10;99.90
56542;DHT22;42438;53.174;6.730;2022-08-19T00:21:07;15.10;99.90
56542;DHT22;42438;53.174;6.730;2022-08-19T00:23:37;15.10;99.90
56542;DHT22;42438;53.174;6.730;2022-08-19T00:26:09;15.10;99.90
56542;DHT22;42438;53.174;6.730;2022-08-19T00:28:40;15.10;99.90
56542;DHT22;42438;53.174;6.730;2022-08-19T00:31:11;15.10;99.90
56542;DHT22;42438;53.174;6.730;2022-08-19T00:33:42;15.00;99.90
56542;DHT22;42438;53.174;6.730;2022-08-19T00:36:13;14.70;99.90
56542;DHT22;42438;53.174;6.730;2022-08-19T00:38:44;14.80;99.90
56542;DHT22;42438;53.174;6.730;2022-08-19T00:41:16;14.70;99.90
56542;DHT22;42438;53.174;6.730;2022-08-19T00:44:22;14.70;99.90
56542;DHT22;42438;53.174;6.730;2022-08-19T00:46:53;14.80;99.90
56542;DHT22;42438;53.174;6.730;2022-08-19T00:52:10;14.80;99.90
56542;DHT22;42438;53.174;6.730;2022-08-19T00:54:43;14.80;99.90
56542;DHT22;42438;53.174;6.730;2022-08-19T00:57:17;14.70;99.90
56542;DHT22;42438;53.174;6.730;2022-08-19T00:59:52;14.50;99.90
56542;DHT22;42438;53.174;6.730;2022-08-19T01:02:24;14.90;99.90
56542;DHT22;42438;53.174;6.730;2022-08-19T01:07:26;14.10;99.90
56542;DHT22;42438;53.174;6.730;2022-08-19T01:09:57;14.10;99.90
56542;DHT22;42438;53.174;6.730;2022-08-19T01:12:28;14.00;99.90
56542;DHT22;42438;53.174;6.730;2022-08-19T01:14:59;14.00;99.90
56542;DHT22;42438;53.174;6.730;2022-08-19T01:17:30;14.00;99.90
56542;DHT22;42438;53.174;6.730;2022-08-19T01:20:00;14.00;99.90
56542;DHT22;42438;53.174;6.730;2022-08-19T01:22:37;14.00;99.90
56542;DHT22;42438;53.174;6.730;2022-08-19T01:25:12;13.80;99.90
56542;DHT22;42438;53.174;6.730;2022-08-19T01:27:47;13.80;99.90
56542;DHT22;42438;53.174;6.730;2022-08-19T01:30:24;13.80;99.90
56542;DHT22;42438;53.174;6.730;2022-08-19T01:32:56;13.90;99.90
56542;DHT22;42438;53.174;6.730;2022-08-19T01:35:29;13.90;99.90
56542;DHT22;42438;53.174;6.730;2022-08-19T01:38:04;14.00;99.90
56542;DHT22;42438;53.174;6.730;2022-08-19T01:40:39;14.10;99.90
56542;DHT22;42438;53.174;6.730;2022-08-19T01:43:10;14.10;99.90
56542;DHT22;42438;53.174;6.730;2022-08-19T01:45:41;14.20;99.90
56542;DHT22;42438;53.174;6.730;2022-08-19T01:48:13;14.30;99.90
56542;DHT22;42438;53.174;6.730;2022-08-19T01:50:44;14.30;99.90
56542;DHT22;42438;53.174;6.730;2022-08-19T01:53:14;14.30;99.90
56542;DHT22;42438;53.174;6.730;2022-08-19T01:55:45;14.30;99.90
56542;DHT22;42438;53.174;6.730;2022-08-19T01:58:19;14.40;99.90
56542;DHT22;42438;53.174;6.730;2022-08-19T02:00:51;14.40;99.90
56542;DHT22;42438;53.174;6.730;2022-08-19T02:03:22;14.30;99.90
56542;DHT22;42438;53.174;6.730;2022-08-19T02:05:58;14.30;99.90
56542;DHT22;42438;53.174;6.730;2022-08-19T02:08:30;14.30;99.90
56542;DHT22;42438;53.174;6.730;2022-08-19T02:11:02;14.50;99.90
56542;DHT22;42438;53.174;6.730;2022-08-19T02:13:34;14.50;99.90
56542;DHT22;42438;53.174;6.730;2022-08-19T02:16:05;14.70;99.90
56542;DHT22;42438;53.174;6.730;2022-08-19T02:18:35;14.60;99.90
56542;DHT22;42438;53.174;6.730;2022-08-19T02:21:06;14.60;99.90
56542;DHT22;42438;53.174;6.730;2022-08-19T02:23:37;14.60;99.90
56542;DHT22;42438;53.174;6.730;2022-08-19T02:26:08;14.60;99.90
56542;DHT22;42438;53.174;6.730;2022-08-19T02:28:40;14.70;99.90
56542;DHT22;42438;53.174;6.730;2022-08-19T02:31:13;14.70;99.90
56542;DHT22;42438;53.174;6.730;2022-08-19T02:33:46;14.60;99.90
56542;DHT22;42438;53.174;6.730;2022-08-19T02:36:17;14.70;99.90
56542;DHT22;42438;53.174;6.730;2022-08-19T02:38:48;14.80;99.90
56542;DHT22;42438;53.174;6.730;2022-08-19T02:41:22;14.90;99.90
56542;DHT22;42438;53.174;6.730;2022-08-19T02:43:53;14.70;99.90
56542;DHT22;42438;53.174;6.730;2022-08-19T02:46:27;14.70;99.90
56542;DHT22;42438;53.174;6.730;2022-08-19T02:49:06;14.80;99.90
56542;DHT22;42438;53.174;6.730;2022-08-19T02:51:40;14.70;99.90
56542;DHT22;42438;53.174;6.730;2022-08-19T02:54:12;14.70;99.90
56542;DHT22;42438;53.174;6.730;2022-08-19T02:56:44;14.70;99.90
56542;DHT22;42438;53.174;6.730;2022-08-19T02:59:15;14.60;99.90
56542;DHT22;42438;53.174;6.730;2022-08-19T03:01:46;14.70;99.90
56542;DHT22;42438;53.174;6.730;2022-08-19T03:04:16;14.70;99.90
56542;DHT22;42438;53.174;6.730;2022-08-19T03:06:48;14.70;99.90
56542;DHT22;42438;53.174;6.730;2022-08-19T03:09:19;14.60;99.90
56542;DHT22;42438;53.174;6.730;2022-08-19T03:11:50;14.60;99.90
56542;DHT22;42438;53.174;6.730;2022-08-19T03:14:21;14.70;99.90
56542;DHT22;42438;53.174;6.730;2022-08-19T03:16:52;14.70;99.90
56542;DHT22;42438;53.174;6.730;2022-08-19T03:19:23;14.60;99.90
56542;DHT22;42438;53.174;6.730;2022-08-19T03:21:53;14.50;99.90
56542;DHT22;42438;53.174;6.730;2022-08-19T03:24:25;14.50;99.90
56542;DHT22;42438;53.174;6.730;2022-08-19T03:26:56;14.40;99.90
56542;DHT22;42438;53.174;6.730;2022-08-19T03:29:29;14.40;99.90
56542;DHT22;42438;53.174;6.730;2022-08-19T03:32:04;14.50;99.90
56542;DHT22;42438;53.174;6.730;2022-08-19T03:34:36;14.40;99.90
56542;DHT22;42438;53.174;6.730;2022-08-19T03:37:09;14.40;99.90
56542;DHT22;42438;53.174;6.730;2022-08-19T03:39:40;14.40;99.90
56542;DHT22;42438;53.174;6.730;2022-08-19T03:42:12;14.40;99.90
56542;DHT22;42438;53.174;6.730;2022-08-19T03:44:43;14.40;99.90
56542;DHT22;42438;53.174;6.730;2022-08-19T03:47:15;14.50;99.90
56542;DHT22;42438;53.174;6.730;2022-08-19T03:49:46;14.50;99.90
56542;DHT22;42438;53.174;6.730;2022-08-19T03:52:16;14.50;99.90
56542;DHT22;42438;53.174;6.730;2022-08-19T03:54:47;14.50;99.90
56542;DHT22;42438;53.174;6.730;2022-08-19T03:57:17;14.50;99.90
56542;DHT22;42438;53.174;6.730;2022-08-19T03:59:48;14.50;99.90
56542;DHT22;42438;53.174;6.730;2022-08-19T04:02:19;14.50;99.90
56542;DHT22;42438;53.174;6.730;2022-08-19T04:04:53;14.60;99.90
56542;DHT22;42438;53.174;6.730;2022-08-19T04:07:24;14.50;99.90
56542;DHT22;42438;53.174;6.730;2022-08-19T04:09:55;14.50;99.90
56542;DHT22;42438;53.174;6.730;2022-08-19T04:12:26;14.50;99.90
56542;DHT22;42438;53.174;6.730;2022-08-19T04:14:57;14.50;99.90
56542;DHT22;42438;53.174;6.730;2022-08-19T04:17:28;14.50;99.90
56542;DHT22;42438;53.174;6.730;2022-08-19T04:19:59;14.50;99.90
56542;DHT22;42438;53.174;6.730;2022-08-19T04:22:30;14.40;99.90
56542;DHT22;42438;53.174;6.730;2022-08-19T04:25:00;14.40;99.90
56542;DHT22;42438;53.174;6.730;2022-08-19T04:27:31;14.50;99.90
56542;DHT22;42438;53.174;6.730;2022-08-19T04:30:04;14.40;99.90
56542;DHT22;42438;53.174;6.730;2022-08-19T04:32:35;14.50;99.90
56542;DHT22;42438;53.174;6.730;2022-08-19T04:35:06;14.50;99.90
56542;DHT22;42438;53.174;6.730;2022-08-19T04:37:38;14.50;99.90
56542;DHT22;42438;53.174;6.730;2022-08-19T04:40:09;14.50;99.90
56542;DHT22;42438;53.174;6.730;2022-08-19T04:42:58;14.60;99.90
56542;DHT22;42438;53.174;6.730;2022-08-19T04:45:29;14.50;99.90
56542;DHT22;42438;53.174;6.730;2022-08-19T04:47:59;14.50;99.90
56542;DHT22;42438;53.174;6.730;2022-08-19T04:50:31;14.60;99.90
56542;DHT22;42438;53.174;6.730;2022-08-19T04:53:03;14.60;99.90
56542;DHT22;42438;53.174;6.730;2022-08-19T04:55:39;14.70;99.90
56542;DHT22;42438;53.174;6.730;2022-08-19T04:58:09;14.70;99.90
56542;DHT22;42438;53.174;6.730;2022-08-19T05:00:40;14.60;99.90
56542;DHT22;42438;53.174;6.730;2022-08-19T05:03:11;15.00;99.90
56542;DHT22;42438;53.174;6.730;2022-08-19T05:05:42;14.70;99.90
56542;DHT22;42438;53.174;6.730;2022-08-19T05:08:14;14.70;99.90
56542;DHT22;42438;53.174;6.730;2022-08-19T05:10:50;14.70;99.90
56542;DHT22;42438;53.174;6.730;2022-08-19T05:13:21;14.70;99.90
56542;DHT22;42438;53.174;6.730;2022-08-19T05:15:56;14.80;99.90
56542;DHT22;42438;53.174;6.730;2022-08-19T05:18:27;14.70;99.90
56542;DHT22;42438;53.174;6.730;2022-08-19T05:21:18;14.70;99.90
56542;DHT22;42438;53.174;6.730;2022-08-19T05:24:08;14.90;99.90
56542;DHT22;42438;53.174;6.730;2022-08-19T05:26:40;14.80;99.90
56542;DHT22;42438;53.174;6.730;2022-08-19T05:29:13;14.90;99.90
56542;DHT22;42438;53.174;6.730;2022-08-19T05:31:44;14.90;99.90
56542;DHT22;42438;53.174;6.730;2022-08-19T05:34:17;14.80;99.90
56542;DHT22;42438;53.174;6.730;2022-08-19T05:36:52;15.00;99.90
56542;DHT22;42438;53.174;6.730;2022-08-19T05:39:29;14.90;99.90
56542;DHT22;42438;53.174;6.730;2022-08-19T05:42:03;15.30;99.90
56542;DHT22;42438;53.174;6.730;2022-08-19T05:44:39;15.40;99.90
56542;DHT22;42438;53.174;6.730;2022-08-19T05:47:11;15.70;99.90
56542;DHT22;42438;53.174;6.730;2022-08-19T05:49:43;15.50;99.90
56542;DHT22;42438;53.174;6.730;2022-08-19T05:52:14;15.60;99.90
56542;DHT22;42438;53.174;6.730;2022-08-19T05:54:48;15.70;99.90
56542;DHT22;42438;53.174;6.730;2022-08-19T05:57:21;15.80;99.90
56542;DHT22;42438;53.174;6.730;2022-08-19T05:59:52;15.80;99.90
56542;DHT22;42438;53.174;6.730;2022-08-19T06:02:28;15.90;99.90
56542;DHT22;42438;53.174;6.730;2022-08-19T06:04:59;16.00;99.90
56542;DHT22;42438;53.174;6.730;2022-08-19T06:07:29;15.90;99.90
56542;DHT22;42438;53.174;6.730;2022-08-19T06:10:00;16.10;99.90
56542;DHT22;42438;53.174;6.730;2022-08-19T06:12:32;16.10;99.90
56542;DHT22;42438;53.174;6.730;2022-08-19T06:15:10;16.10;99.90
56542;DHT22;42438;53.174;6.730;2022-08-19T06:17:42;16.20;99.90
56542;DHT22;42438;53.174;6.730;2022-08-19T06:20:14;16.40;99.90
56542;DHT22;42438;53.174;6.730;2022-08-19T06:22:47;16.40;99.90
56542;DHT22;42438;53.174;6.730;2022-08-19T06:25:20;16.70;99.90
56542;DHT22;42438;53.174;6.730;2022-08-19T06:27:50;16.50;99.90
56542;DHT22;42438;53.174;6.730;2022-08-19T06:30:21;16.60;99.90
56542;DHT22;42438;53.174;6.730;2022-08-19T06:32:52;16.90;99.90
56542;DHT22;42438;53.174;6.730;2022-08-19T06:35:23;16.80;99.90
56542;DHT22;42438;53.174;6.730;2022-08-19T06:37:53;17.30;99.90
56542;DHT22;42438;53.174;6.730;2022-08-19T06:40:24;16.90;99.90
56542;DHT22;42438;53.174;6.730;2022-08-19T06:42:55;17.00;99.90
56542;DHT22;42438;53.174;6.730;2022-08-19T06:45:26;17.20;99.90
56542;DHT22;42438;53.174;6.730;2022-08-19T06:47:58;17.30;99.90
56542;DHT22;42438;53.174;6.730;2022-08-19T06:50:28;17.40;99.90
56542;DHT22;42438;53.174;6.730;2022-08-19T06:55:30;17.50;99.90
56542;DHT22;42438;53.174;6.730;2022-08-19T06:58:02;17.70;99.90
56542;DHT22;42438;53.174;6.730;2022-08-19T07:00:34;17.80;99.90
56542;DHT22;42438;53.174;6.730;2022-08-19T07:03:04;17.90;99.90
56542;DHT22;42438;53.174;6.730;2022-08-19T07:05:41;18.00;99.90
56542;DHT22;42438;53.174;6.730;2022-08-19T07:08:13;18.10;99.90
56542;DHT22;42438;53.174;6.730;2022-08-19T07:10:44;18.20;99.90
56542;DHT22;42438;53.174;6.730;2022-08-19T07:13:16;18.30;99.90
56542;DHT22;42438;53.174;6.730;2022-08-19T07:15:46;18.40;99.90
56542;DHT22;42438;53.174;6.730;2022-08-19T07:18:18;18.60;99.90
56542;DHT22;42438;53.174;6.730;2022-08-19T07:20:50;18.60;99.90
56542;DHT22;42438;53.174;6.730;2022-08-19T07:23:20;18.70;99.90
56542;DHT22;42438;53.174;6.730;2022-08-19T07:25:51;18.80;99.90
56542;DHT22;42438;53.174;6.730;2022-08-19T07:28:22;18.90;99.90
56542;DHT22;42438;53.174;6.730;2022-08-19T07:30:53;19.00;99.90
56542;DHT22;42438;53.174;6.730;2022-08-19T07:33:23;19.10;99.90
56542;DHT22;42438;53.174;6.730;2022-08-19T07:35:54;19.30;99.90
56542;DHT22;42438;53.174;6.730;2022-08-19T07:38:25;19.30;99.90
56542;DHT22;42438;53.174;6.730;2022-08-19T07:40:56;19.40;99.90
56542;DHT22;42438;53.174;6.730;2022-08-19T07:43:27;19.50;99.90
56542;DHT22;42438;53.174;6.730;2022-08-19T07:45:58;19.60;99.90
56542;DHT22;42438;53.174;6.730;2022-08-19T07:48:29;19.70;99.90
56542;DHT22;42438;53.174;6.730;2022-08-19T07:51:03;19.90;99.90
56542;DHT22;42438;53.174;6.730;2022-08-19T07:53:35;19.90;99.90
56542;DHT22;42438;53.174;6.730;2022-08-19T07:56:06;20.10;99.90
56542;DHT22;42438;53.174;6.730;2022-08-19T07:58:39;20.30;99.90
56542;DHT22;42438;53.174;6.730;2022-08-19T08:01:14;20.30;99.90
56542;DHT22;42438;53.174;6.730;2022-08-19T08:03:48;20.40;99.90
56542;DHT22;42438;53.174;6.730;2022-08-19T08:06:38;20.50;99.90
56542;DHT22;42438;53.174;6.730;2022-08-19T08:09:37;20.70;99.90
56542;DHT22;42438;53.174;6.730;2022-08-19T08:12:13;20.90;99.90
56542;DHT22;42438;53.174;6.730;2022-08-19T08:14:50;20.90;99.90
56542;DHT22;42438;53.174;6.730;2022-08-19T08:17:24;21.10;99.90
56542;DHT22;42438;53.174;6.730;2022-08-19T08:19:56;21.20;99.90
56542;DHT22;42438;53.174;6.730;2022-08-19T08:22:27;21.30;99.90
56542;DHT22;42438;53.174;6.730;2022-08-19T08:25:19;21.40;99.90
56542;DHT22;42438;53.174;6.730;2022-08-19T08:27:50;21.50;99.90
56542;DHT22;42438;53.174;6.730;2022-08-19T08:30:24;21.70;99.90
56542;DHT22;42438;53.174;6.730;2022-08-19T08:32:55;21.80;99.90
56542;DHT22;42438;53.174;6.730;2022-08-19T08:35:26;22.00;99.90
56542;DHT22;42438;53.174;6.730;2022-08-19T08:37:57;22.10;99.90
56542;DHT22;42438;53.174;6.730;2022-08-19T08:43:29;22.40;99.90
56542;DHT22;42438;53.174;6.730;2022-08-19T08:51:20;22.90;99.90
56542;DHT22;42438;53.174;6.730;2022-08-19T08:53:52;23.00;99.90
56542;DHT22;42438;53.174;6.730;2022-08-19T08:56:24;23.00;99.90
56542;DHT22;42438;53.174;6.730;2022-08-19T08:59:05;23.10;99.90
56542;DHT22;42438;53.174;6.730;2022-08-19T09:01:38;23.30;99.90
56542;DHT22;42438;53.174;6.730;2022-08-19T09:04:11;23.40;99.90
56542;DHT22;42438;53.174;6.730;2022-08-19T09:09:40;23.60;99.90
56542;DHT22;42438;53.174;6.730;2022-08-19T09:12:38;23.60;99.90
56542;DHT22;42438;53.174;6.730;2022-08-19T09:15:13;23.70;99.90
56542;DHT22;42438;53.174;6.730;2022-08-19T09:17:44;23.80;99.90
56542;DHT22;42438;53.174;6.730;2022-08-19T09:20:21;23.90;99.90
56542;DHT22;42438;53.174;6.730;2022-08-19T09:22:52;24.00;99.90
56542;DHT22;42438;53.174;6.730;2022-08-19T09:25:22;24.10;99.90
56542;DHT22;42438;53.174;6.730;2022-08-19T09:27:54;24.20;99.90
56542;DHT22;42438;53.174;6.730;2022-08-19T09:30:28;24.30;99.90
56542;DHT22;42438;53.174;6.730;2022-08-19T09:32:59;24.30;99.90
56542;DHT22;42438;53.174;6.730;2022-08-19T09:35:30;24.40;99.90
56542;DHT22;42438;53.174;6.730;2022-08-19T09:38:01;24.50;99.90
56542;DHT22;42438;53.174;6.730;2022-08-19T09:40:31;24.60;99.90
56542;DHT22;42438;53.174;6.730;2022-08-19T09:43:02;24.70;99.90
56542;DHT22;42438;53.174;6.730;2022-08-19T09:45:33;24.80;99.90
56542;DHT22;42438;53.174;6.730;2022-08-19T09:48:04;24.90;99.90
56542;DHT22;42438;53.174;6.730;2022-08-19T09:50:35;25.10;99.90
56542;DHT22;42438;53.174;6.730;2022-08-19T09:53:08;25.10;99.90
56542;DHT22;42438;53.174;6.730;2022-08-19T09:55:43;25.20;99.90
56542;DHT22;42438;53.174;6.730;2022-08-19T09:58:13;25.20;99.90
56542;DHT22;42438;53.174;6.730;2022-08-19T10:00:44;25.30;99.90
56542;DHT22;42438;53.174;6.730;2022-08-19T10:03:16;25.40;99.90
56542;DHT22;42438;53.174;6.730;2022-08-19T10:05:47;25.50;99.90
56542;DHT22;42438;53.174;6.730;2022-08-19T10:08:32;25.60;99.90
56542;DHT22;42438;53.174;6.730;2022-08-19T10:11:04;25.60;99.90
56542;DHT22;42438;53.174;6.730;2022-08-19T10:13:34;25.70;99.90
56542;DHT22;42438;53.174;6.730;2022-08-19T10:16:09;25.80;99.90
56542;DHT22;42438;53.174;6.730;2022-08-19T10:18:41;25.90;99.90
56542;DHT22;42438;53.174;6.730;2022-08-19T10:21:20;26.00;99.90
56542;DHT22;42438;53.174;6.730;2022-08-19T10:23:54;26.10;99.90
56542;DHT22;42438;53.174;6.730;2022-08-19T10:26:28;26.00;99.90
56542;DHT22;42438;53.174;6.730;2022-08-19T10:28:59;25.90;99.90
56542;DHT22;42438;53.174;6.730;2022-08-19T10:31:31;25.90;99.90
56542;DHT22;42438;53.174;6.730;2022-08-19T10:34:02;26.10;99.90
56542;DHT22;42438;53.174;6.730;2022-08-19T10:36:35;26.10;99.90
56542;DHT22;42438;53.174;6.730;2022-08-19T10:39:08;26.20;99.90
56542;DHT22;42438;53.174;6.730;2022-08-19T10:41:39;26.20;99.90
56542;DHT22;42438;53.174;6.730;2022-08-19T10:44:12;26.20;99.90
56542;DHT22;42438;53.174;6.730;2022-08-19T10:46:43;26.40;99.90
56542;DHT22;42438;53.174;6.730;2022-08-19T10:49:17;26.40;99.90
56542;DHT22;42438;53.174;6.730;2022-08-19T10:51:49;26.40;99.90
56542;DHT22;42438;53.174;6.730;2022-08-19T10:54:39;26.50;99.90
56542;DHT22;42438;53.174;6.730;2022-08-19T10:57:32;26.60;99.90
56542;DHT22;42438;53.174;6.730;2022-08-19T11:00:03;26.70;99.90
56542;DHT22;42438;53.174;6.730;2022-08-19T11:02:34;26.80;99.90
56542;DHT22;42438;53.174;6.730;2022-08-19T11:05:07;26.80;99.90
56542;DHT22;42438;53.174;6.730;2022-08-19T11:07:41;26.90;99.90
56542;DHT22;42438;53.174;6.730;2022-08-19T11:10:14;26.90;99.90
56542;DHT22;42438;53.174;6.730;2022-08-19T11:12:44;27.10;99.90
56542;DHT22;42438;53.174;6.730;2022-08-19T11:15:16;26.90;99.90
56542;DHT22;42438;53.174;6.730;2022-08-19T11:17:47;26.60;99.90
56542;DHT22;42438;53.174;6.730;2022-08-19T11:20:18;26.60;99.90
56542;DHT22;42438;53.174;6.730;2022-08-19T11:22:48;26.80;99.90
56542;DHT22;42438;53.174;6.730;2022-08-19T11:25:21;27.10;99.90
56542;DHT22;42438;53.174;6.730;2022-08-19T11:27:52;27.30;99.90
56542;DHT22;42438;53.174;6.730;2022-08-19T11:30:23;27.40;99.90
56542;DHT22;42438;53.174;6.730;2022-08-19T11:32:53;27.60;99.40
56542;DHT22;42438;53.174;6.730;2022-08-19T11:35:24;27.40;99.20
56542;DHT22;42438;53.174;6.730;2022-08-19T11:37:55;27.40;99.30
56542;DHT22;42438;53.174;6.730;2022-08-19T11:40:28;27.50;99.50
56542;DHT22;42438;53.174;6.730;2022-08-19T11:42:58;27.60;99.20
56542;DHT22;42438;53.174;6.730;2022-08-19T11:45:30;27.50;99.30
56542;DHT22;42438;53.174;6.730;2022-08-19T11:48:00;27.50;99.50
56542;DHT22;42438;53.174;6.730;2022-08-19T11:50:32;27.60;99.30
56542;DHT22;42438;53.174;6.730;2022-08-19T11:53:02;27.50;99.60
56542;DHT22;42438;53.174;6.730;2022-08-19T11:55:37;27.30;99.80
56542;DHT22;42438;53.174;6.730;2022-08-19T11:58:09;27.40;99.90
56542;DHT22;42438;53.174;6.730;2022-08-19T12:00:40;27.30;99.80
56542;DHT22;42438;53.174;6.730;2022-08-19T12:03:12;27.50;99.50
56542;DHT22;42438;53.174;6.730;2022-08-19T12:05:44;27.70;99.90
56542;DHT22;42438;53.174;6.730;2022-08-19T12:08:14;27.80;99.90
56542;DHT22;42438;53.174;6.730;2022-08-19T12:10:46;28.00;99.10
56542;DHT22;42438;53.174;6.730;2022-08-19T12:13:16;28.00;98.90
56542;DHT22;42438;53.174;6.730;2022-08-19T12:15:48;27.90;98.50
56542;DHT22;42438;53.174;6.730;2022-08-19T12:18:20;27.70;98.50
56542;DHT22;42438;53.174;6.730;2022-08-19T12:20:52;27.40;98.80
56542;DHT22;42438;53.174;6.730;2022-08-19T12:23:24;27.20;98.80
56542;DHT22;42438;53.174;6.730;2022-08-19T12:25:55;26.90;98.80
56542;DHT22;42438;53.174;6.730;2022-08-19T12:28:27;26.80;98.80
56542;DHT22;42438;53.174;6.730;2022-08-19T12:30:58;26.80;99.00
56542;DHT22;42438;53.174;6.730;2022-08-19T12:33:29;26.80;99.30
56542;DHT22;42438;53.174;6.730;2022-08-19T12:36:02;26.90;99.60
56542;DHT22;42438;53.174;6.730;2022-08-19T12:38:34;27.00;99.70
56542;DHT22;42438;53.174;6.730;2022-08-19T12:41:05;27.20;99.30
56542;DHT22;42438;53.174;6.730;2022-08-19T12:43:37;27.50;99.60
56542;DHT22;42438;53.174;6.730;2022-08-19T12:46:12;27.40;99.10
56542;DHT22;42438;53.174;6.730;2022-08-19T12:48:42;27.20;99.00
56542;DHT22;42438;53.174;6.730;2022-08-19T12:51:17;27.10;99.30
56542;DHT22;42438;53.174;6.730;2022-08-19T12:53:49;26.90;99.30
56542;DHT22;42438;53.174;6.730;2022-08-19T12:56:20;26.80;98.80
56542;DHT22;42438;53.174;6.730;2022-08-19T12:58:51;26.70;98.90
56542;DHT22;42438;53.174;6.730;2022-08-19T13:01:21;26.70;99.30
56542;DHT22;42438;53.174;6.730;2022-08-19T13:03:52;26.80;99.50
56542;DHT22;42438;53.174;6.730;2022-08-19T13:06:22;26.90;99.60
56542;DHT22;42438;53.174;6.730;2022-08-19T13:08:54;27.00;99.80
56542;DHT22;42438;53.174;6.730;2022-08-19T13:11:25;26.90;99.50
56542;DHT22;42438;53.174;6.730;2022-08-19T13:13:56;26.90;99.60
56542;DHT22;42438;53.174;6.730;2022-08-19T13:16:27;27.00;99.70
56542;DHT22;42438;53.174;6.730;2022-08-19T13:18:58;26.90;99.90
56542;DHT22;42438;53.174;6.730;2022-08-19T13:21:28;26.80;99.90
56542;DHT22;42438;53.174;6.730;2022-08-19T13:24:00;26.80;99.90
56542;DHT22;42438;53.174;6.730;2022-08-19T13:26:32;26.70;99.90
56542;DHT22;42438;53.174;6.730;2022-08-19T13:29:03;26.80;99.80
56542;DHT22;42438;53.174;6.730;2022-08-19T13:31:52;26.80;99.60
56542;DHT22;42438;53.174;6.730;2022-08-19T13:34:41;26.90;99.60
56542;DHT22;42438;53.174;6.730;2022-08-19T13:37:12;26.80;99.50
56542;DHT22;42438;53.174;6.730;2022-08-19T13:39:43;26.80;99.80
56542;DHT22;42438;53.174;6.730;2022-08-19T13:42:15;26.80;99.80
56542;DHT22;42438;53.174;6.730;2022-08-19T13:44:46;26.70;99.50
56542;DHT22;42438;53.174;6.730;2022-08-19T13:47:18;26.60;99.70
56542;DHT22;42438;53.174;6.730;2022-08-19T13:49:49;26.50;99.90
56542;DHT22;42438;53.174;6.730;2022-08-19T13:52:20;26.30;99.90
56542;DHT22;42438;53.174;6.730;2022-08-19T13:54:50;26.20;99.90
56542;DHT22;42438;53.174;6.730;2022-08-19T13:57:21;26.00;99.90
56542;DHT22;42438;53.174;6.730;2022-08-19T13:59:52;25.80;99.90
56542;DHT22;42438;53.174;6.730;2022-08-19T14:02:22;25.80;99.90
56542;DHT22;42438;53.174;6.730;2022-08-19T14:04:53;25.90;99.90
56542;DHT22;42438;53.174;6.730;2022-08-19T14:07:24;25.70;99.90
56542;DHT22;42438;53.174;6.730;2022-08-19T14:09:54;25.60;99.90
56542;DHT22;42438;53.174;6.730;2022-08-19T14:12:25;25.30;99.90
56542;DHT22;42438;53.174;6.730;2022-08-19T14:14:56;25.10;99.90
56542;DHT22;42438;53.174;6.730;2022-08-19T14:17:26;24.90;99.90
56542;DHT22;42438;53.174;6.730;2022-08-19T14:19:59;24.90;99.90
56542;DHT22;42438;53.174;6.730;2022-08-19T14:22:30;24.80;99.90
56542;DHT22;42438;53.174;6.730;2022-08-19T14:25:01;24.70;99.90
56542;DHT22;42438;53.174;6.730;2022-08-19T14:27:36;24.70;99.90
56542;DHT22;42438;53.174;6.730;2022-08-19T14:30:09;24.60;99.90
56542;DHT22;42438;53.174;6.730;2022-08-19T14:32:42;24.40;99.90
56542;DHT22;42438;53.174;6.730;2022-08-19T14:35:15;24.20;99.90
56542;DHT22;42438;53.174;6.730;2022-08-19T14:37:45;24.20;99.90
56542;DHT22;42438;53.174;6.730;2022-08-19T14:40:18;24.20;99.90
56542;DHT22;42438;53.174;6.730;2022-08-19T14:42:53;24.10;99.90
56542;DHT22;42438;53.174;6.730;2022-08-19T14:45:27;24.10;99.90
56542;DHT22;42438;53.174;6.730;2022-08-19T14:47:58;24.10;99.90
56542;DHT22;42438;53.174;6.730;2022-08-19T14:50:30;24.20;99.90
56542;DHT22;42438;53.174;6.730;2022-08-19T14:53:04;24.20;99.90
56542;DHT22;42438;53.174;6.730;2022-08-19T14:55:35;24.20;99.90
56542;DHT22;42438;53.174;6.730;2022-08-19T14:58:05;24.20;99.90
56542;DHT22;42438;53.174;6.730;2022-08-19T15:00:36;24.20;99.90
56542;DHT22;42438;53.174;6.730;2022-08-19T15:03:07;24.10;99.90
56542;DHT22;42438;53.174;6.730;2022-08-19T15:05:38;24.00;99.90
56542;DHT22;42438;53.174;6.730;2022-08-19T15:08:08;24.00;99.90
56542;DHT22;42438;53.174;6.730;2022-08-19T15:10:39;24.00;99.90
56542;DHT22;42438;53.174;6.730;2022-08-19T15:13:10;24.00;99.90
56542;DHT22;42438;53.174;6.730;2022-08-19T15:15:40;23.90;99.90
56542;DHT22;42438;53.174;6.730;2022-08-19T15:18:11;24.00;99.90
56542;DHT22;42438;53.174;6.730;2022-08-19T15:20:43;24.00;99.90
56542;DHT22;42438;53.174;6.730;2022-08-19T15:23:15;24.00;99.90
56542;DHT22;42438;53.174;6.730;2022-08-19T15:25:46;24.10;99.90
56542;DHT22;42438;53.174;6.730;2022-08-19T15:28:17;24.20;99.90
56542;DHT22;42438;53.174;6.730;2022-08-19T15:30:48;24.10;99.90
56542;DHT22;42438;53.174;6.730;2022-08-19T15:33:19;24.10;99.90
56542;DHT22;42438;53.174;6.730;2022-08-19T15:35:50;24.10;99.90
56542;DHT22;42438;53.174;6.730;2022-08-19T15:38:21;24.10;99.90
56542;DHT22;42438;53.174;6.730;2022-08-19T15:40:53;24.20;99.90
56542;DHT22;42438;53.174;6.730;2022-08-19T15:43:43;24.20;99.90
56542;DHT22;42438;53.174;6.730;2022-08-19T15:46:18;24.30;99.90
56542;DHT22;42438;53.174;6.730;2022-08-19T15:48:52;24.40;99.90
56542;DHT22;42438;53.174;6.730;2022-08-19T15:51:24;24.50;99.90
56542;DHT22;42438;53.174;6.730;2022-08-19T15:53:56;24.50;99.90
56542;DHT22;42438;53.174;6.730;2022-08-19T15:56:27;24.50;99.90
56542;DHT22;42438;53.174;6.730;2022-08-19T15:59:17;24.50;99.90
56542;DHT22;42438;53.174;6.730;2022-08-19T16:02:07;24.60;99.90
56542;DHT22;42438;53.174;6.730;2022-08-19T16:04:56;24.50;99.90
56542;DHT22;42438;53.174;6.730;2022-08-19T16:07:45;24.50;99.90
56542;DHT22;42438;53.174;6.730;2022-08-19T16:10:17;24.50;99.90
56542;DHT22;42438;53.174;6.730;2022-08-19T16:12:48;24.50;99.90
56542;DHT22;42438;53.174;6.730;2022-08-19T16:15:18;24.50;99.90
56542;DHT22;42438;53.174;6.730;2022-08-19T16:17:50;24.50;99.90
56542;DHT22;42438;53.174;6.730;2022-08-19T16:20:21;24.50;99.90
56542;DHT22;42438;53.174;6.730;2022-08-19T16:22:51;24.50;99.90